Time;durP1;ratioP1;P1;durP2;ratioP2;P2;SDS_P1;SDS_P2;PMS_P1;PMS_P2;Temp;Humidity;BMP_temperature;BMP_pressure;BME280_temperature;BME280_humidity;BME280_pressure;Samples;Min_cycle;Max_cycle;Signal;HPM_P1;HPM_P2
2023/06/05 00:01:39;;;;;;;2.53;2.28;;;20.00;45.70;;;;;;5031695;28;20073;-45
2023/06/05 00:04:06;;;;;;;2.13;1.90;;;20.00;45.80;;;;;;5028644;28;20041;-49
2023/06/05 00:06:33;;;;;;;1.95;1.77;;;19.90;45.90;;;;;;5032647;28;20151;-49
2023/06/05 00:09:00;;;;;;;1.95;1.70;;;19.90;46.00;;;;;;5031407;28;20049;-45
2023/06/05 00:11:29;;;;;;;4.90;1.85;;;19.80;46.20;;;;;;5010194;28;20453;-49
2023/06/05 00:13:58;;;;;;;2.80;1.70;;;19.80;46.60;;;;;;5030875;28;20048;-49
2023/06/05 00:16:28;;;;;;;3.17;1.77;;;19.70;46.20;;;;;;5032445;28;20057;-50
2023/06/05 00:19:01;;;;;;;4.55;2.40;;;19.70;46.60;;;;;;5031402;28;20046;-48
2023/06/05 00:21:32;;;;;;;3.60;2.20;;;19.60;46.30;;;;;;5026438;28;20397;-49
2023/06/05 00:24:02;;;;;;;3.15;1.90;;;19.50;46.50;;;;;;5026174;28;20038;-47
2023/06/05 00:26:29;;;;;;;2.10;1.90;;;19.40;46.20;;;;;;5026012;28;20038;-45
2023/06/05 00:28:59;;;;;;;2.85;1.90;;;19.30;46.40;;;;;;5031143;28;20046;-46
2023/06/05 00:31:32;;;;;;;3.13;2.10;;;19.30;46.60;;;;;;5014348;28;20041;-46
2023/06/05 00:33:59;;;;;;;3.97;1.70;;;19.20;46.80;;;;;;5007488;28;20753;-47
2023/06/05 00:36:29;;;;;;;3.20;2.78;;;19.10;47.00;;;;;;5012180;28;20065;-47
2023/06/05 00:39:03;;;;;;;3.63;3.03;;;19.00;47.10;;;;;;5031702;28;20554;-48
2023/06/05 00:41:30;;;;;;;2.17;1.70;;;19.00;47.40;;;;;;5027084;28;20132;-45
2023/06/05 00:44:00;;;;;;;2.65;1.75;;;18.90;47.10;;;;;;5029535;28;20092;-45
2023/06/05 00:46:27;;;;;;;2.83;2.13;;;18.80;47.20;;;;;;5014334;28;20049;-49
2023/06/05 00:48:59;;;;;;;2.13;1.70;;;18.70;47.40;;;;;;5006789;28;20064;-45
2023/06/05 00:51:28;;;;;;;2.35;1.63;;;18.70;47.50;;;;;;5031845;28;20072;-48
2023/06/05 00:53:57;;;;;;;3.53;1.70;;;18.60;47.60;;;;;;5010456;28;20050;-46
2023/06/05 00:56:24;;;;;;;3.53;1.83;;;18.50;47.80;;;;;;5031678;28;20124;-49
2023/06/05 00:58:54;;;;;;;2.28;1.88;;;18.50;47.80;;;;;;5031233;28;20088;-45
2023/06/05 01:01:24;;;;;;;3.60;1.85;;;18.40;48.20;;;;;;5020522;28;20101;-47
2023/06/05 01:03:52;;;;;;;4.47;2.10;;;18.30;48.10;;;;;;5026868;28;20049;-48
2023/06/05 01:06:23;;;;;;;5.32;2.17;;;18.30;48.30;;;;;;5031745;28;20054;-46
2023/06/05 01:08:50;;;;;;;4.35;2.05;;;18.20;48.30;;;;;;5013499;28;20080;-46
2023/06/05 01:11:25;;;;;;;2.88;2.13;;;18.20;48.60;;;;;;5029102;28;20041;-46
2023/06/05 01:14:06;;;;;;;4.00;2.45;;;18.10;49.20;;;;;;5027874;28;20045;-46
2023/06/05 01:16:34;;;;;;;3.42;2.35;;;18.10;49.60;;;;;;5031548;28;20401;-48
2023/06/05 01:19:02;;;;;;;3.00;2.00;;;18.00;49.20;;;;;;5012561;28;20046;-47
2023/06/05 01:21:35;;;;;;;3.60;2.50;;;18.00;49.50;;;;;;5027246;28;20500;-46
2023/06/05 01:24:13;;;;;;;4.07;2.13;;;18.00;49.80;;;;;;5007062;28;20638;-49
2023/06/05 01:27:26;;;;;;;3.27;2.27;;;18.00;49.80;;;;;;5028192;28;20099;-49
2023/06/05 01:30:24;;;;;;;2.90;2.15;;;18.00;50.50;;;;;;5012907;28;20045;-46
2023/06/05 01:33:12;;;;;;;2.70;2.15;;;18.00;50.50;;;;;;5008283;28;20049;-46
2023/06/05 01:35:47;;;;;;;5.22;2.53;;;18.00;50.60;;;;;;5027242;28;20038;-48
2023/06/05 01:38:15;;;;;;;2.85;2.10;;;18.00;49.70;;;;;;5013279;28;20037;-46
2023/06/05 01:40:42;;;;;;;2.70;2.05;;;18.00;49.90;;;;;;5012368;28;20517;-49
2023/06/05 01:43:10;;;;;;;4.68;2.63;;;18.00;50.20;;;;;;5022955;28;20072;-49
2023/06/05 01:45:43;;;;;;;4.03;2.35;;;17.90;50.20;;;;;;5030357;28;20042;-49
2023/06/05 01:48:15;;;;;;;4.45;2.35;;;17.90;50.50;;;;;;5013040;28;20479;-49
2023/06/05 01:50:45;;;;;;;2.58;2.38;;;17.90;50.50;;;;;;5008240;28;20129;-47
2023/06/05 01:53:12;;;;;;;3.00;1.88;;;17.90;50.30;;;;;;5010767;28;20053;-46
2023/06/05 01:55:41;;;;;;;2.85;2.20;;;17.90;50.40;;;;;;5026580;28;20706;-46
2023/06/05 01:58:11;;;;;;;2.67;2.25;;;17.90;50.50;;;;;;5012128;28;20072;-48
2023/06/05 02:00:46;;;;;;;3.13;2.28;;;17.90;50.50;;;;;;5012515;28;20136;-45
2023/06/05 02:03:15;;;;;;;3.85;2.45;;;17.90;50.40;;;;;;5026779;28;20467;-48
2023/06/05 02:05:42;;;;;;;3.72;2.28;;;17.90;50.70;;;;;;5029799;28;20080;-45
2023/06/05 02:08:10;;;;;;;5.03;2.25;;;17.80;50.60;;;;;;5030394;28;20051;-46
2023/06/05 02:10:40;;;;;;;3.40;2.55;;;17.80;50.70;;;;;;5011739;28;20083;-48
2023/06/05 02:13:09;;;;;;;2.92;2.50;;;17.80;50.60;;;;;;4991044;28;20057;-48
2023/06/05 02:15:45;;;;;;;3.70;2.25;;;17.80;50.70;;;;;;5029823;28;20033;-47
2023/06/05 02:18:13;;;;;;;3.13;2.83;;;17.80;50.70;;;;;;4995818;28;20053;-48
2023/06/05 02:20:43;;;;;;;3.90;2.67;;;17.80;50.70;;;;;;5029709;28;20033;-46
2023/06/05 02:23:12;;;;;;;2.47;2.28;;;17.80;50.80;;;;;;5007128;28;20080;-48
2023/06/05 02:25:42;;;;;;;3.72;2.15;;;17.70;50.80;;;;;;5005148;28;20107;-49
2023/06/05 02:28:11;;;;;;;5.38;2.42;;;17.70;50.70;;;;;;5011018;28;20112;-47
2023/06/05 02:30:44;;;;;;;4.82;2.40;;;17.70;50.80;;;;;;5011892;28;20045;-45
2023/06/05 02:33:16;;;;;;;6.40;2.50;;;17.70;50.90;;;;;;5008210;28;20033;-44
2023/06/05 02:35:43;;;;;;;3.88;2.50;;;17.60;50.90;;;;;;5029471;28;20069;-46
2023/06/05 02:38:14;;;;;;;2.88;2.50;;;17.60;50.90;;;;;;5011491;28;20049;-46
2023/06/05 02:40:44;;;;;;;2.78;2.35;;;17.50;50.90;;;;;;5026113;28;20253;-47
2023/06/05 02:43:14;;;;;;;3.15;2.28;;;17.50;51.00;;;;;;5011531;28;20041;-49
2023/06/05 02:45:47;;;;;;;5.68;2.60;;;17.50;51.30;;;;;;5029569;28;20045;-46
2023/06/05 02:48:16;;;;;;;3.83;2.50;;;17.50;51.20;;;;;;5011965;28;20053;-46
2023/06/05 02:50:46;;;;;;;2.58;2.25;;;17.40;51.10;;;;;;5026906;28;20088;-48
2023/06/05 02:53:15;;;;;;;2.60;2.40;;;17.40;51.20;;;;;;5011463;28;20107;-46
2023/06/05 02:55:43;;;;;;;4.05;2.60;;;17.40;51.40;;;;;;5008303;28;20045;-47
2023/06/05 02:58:13;;;;;;;4.25;2.47;;;17.40;51.50;;;;;;5011448;28;20132;-47
2023/06/05 03:00:46;;;;;;;3.33;3.03;;;17.30;51.60;;;;;;5009674;28;20553;-46
2023/06/05 03:03:16;;;;;;;7.38;2.92;;;17.30;51.50;;;;;;5011516;28;20042;-48
2023/06/05 03:05:48;;;;;;;2.97;2.67;;;17.20;51.60;;;;;;5012107;28;20058;-48
2023/06/05 03:08:16;;;;;;;4.68;2.38;;;17.20;51.90;;;;;;5010006;28;20060;-46
2023/06/05 03:10:45;;;;;;;4.70;2.45;;;17.20;51.70;;;;;;5014292;28;20584;-47
2023/06/05 03:13:18;;;;;;;3.58;2.30;;;17.10;51.70;;;;;;5026917;28;20065;-47
2023/06/05 03:15:46;;;;;;;3.58;2.70;;;17.10;51.90;;;;;;5011819;28;20045;-47
2023/06/05 03:18:15;;;;;;;4.20;2.67;;;17.10;52.00;;;;;;5006327;28;20507;-48
2023/06/05 03:20:45;;;;;;;2.90;2.38;;;17.10;52.10;;;;;;5012070;28;20498;-45
2023/06/05 03:23:15;;;;;;;3.10;2.45;;;17.00;52.10;;;;;;5012970;28;20684;-46
2023/06/05 03:25:47;;;;;;;;;;;17.00;52.20;;;;;;5007897;28;20073;-47
2023/06/05 03:28:17;;;;;;;4.93;2.90;;;17.10;51.60;;;;;;5015381;28;19925;-45
2023/06/05 03:30:47;;;;;;;4.65;2.20;;;17.00;51.60;;;;;;5033515;28;20030;-48
2023/06/05 03:33:17;;;;;;;3.47;2.53;;;17.00;51.90;;;;;;5015353;28;20103;-45
2023/06/05 03:35:49;;;;;;;5.13;2.88;;;16.90;52.10;;;;;;5022928;28;20528;-46
2023/06/05 03:38:15;;;;;;;3.97;2.88;;;16.90;52.30;;;;;;5015043;28;20047;-45
2023/06/05 03:40:45;;;;;;;3.47;3.10;;;16.90;52.40;;;;;;5015342;28;20042;-45
2023/06/05 03:43:15;;;;;;;3.58;3.05;;;16.90;52.50;;;;;;5013921;28;20438;-49
2023/06/05 03:45:42;;;;;;;3.63;3.00;;;16.90;52.70;;;;;;5024744;28;20500;-45
2023/06/05 03:48:13;;;;;;;3.67;3.22;;;16.90;52.70;;;;;;5031774;28;20069;-49
2023/06/05 03:50:42;;;;;;;3.90;3.20;;;16.80;52.70;;;;;;5030889;28;20387;-47
2023/06/05 03:53:10;;;;;;;3.67;3.15;;;16.80;52.60;;;;;;5021469;28;20108;-47
2023/06/05 03:55:49;;;;;;;5.35;2.83;;;16.80;52.80;;;;;;5013648;28;20041;-46
2023/06/05 03:58:26;;;;;;;5.22;3.20;;;16.80;52.90;;;;;;4999655;28;20046;-46
2023/06/05 04:00:55;;;;;;;4.82;2.75;;;16.80;53.00;;;;;;5015412;28;20092;-46
2023/06/05 04:03:25;;;;;;;4.10;2.78;;;16.80;53.00;;;;;;5009648;28;20045;-45
2023/06/05 04:05:54;;;;;;;5.28;3.13;;;16.80;53.00;;;;;;5032828;28;20037;-43
2023/06/05 04:08:25;;;;;;;4.15;2.60;;;16.80;53.00;;;;;;5014316;28;20132;-46
2023/06/05 04:10:55;;;;;;;3.92;2.63;;;16.70;53.00;;;;;;5009297;28;20049;-45
2023/06/05 04:13:27;;;;;;;5.35;3.55;;;16.80;53.30;;;;;;5032417;28;20045;-45
2023/06/05 04:15:57;;;;;;;4.28;2.97;;;16.80;53.10;;;;;;5014395;28;20068;-46
2023/06/05 04:18:28;;;;;;;5.38;3.30;;;16.80;53.20;;;;;;5012260;28;20501;-46
2023/06/05 04:20:59;;;;;;;4.07;3.30;;;16.80;53.30;;;;;;5030768;28;20057;-45
2023/06/05 04:23:26;;;;;;;8.25;3.22;;;16.80;53.30;;;;;;5013286;28;20076;-46
2023/06/05 04:25:55;;;;;;;5.20;3.50;;;16.80;53.40;;;;;;5012799;28;20128;-46
2023/06/05 04:28:27;;;;;;;5.75;3.70;;;16.80;53.70;;;;;;5014230;28;20128;-46
2023/06/05 04:30:59;;;;;;;4.75;3.08;;;16.80;53.80;;;;;;5005015;28;20042;-47
2023/06/05 04:33:27;;;;;;;4.70;3.63;;;16.80;53.60;;;;;;5031161;28;20445;-45
2023/06/05 04:36:05;;;;;;;6.15;3.75;;;16.80;53.50;;;;;;5014329;28;20049;-45
2023/06/05 04:38:33;;;;;;;3.70;2.83;;;16.80;53.60;;;;;;5025511;28;20037;-46
2023/06/05 04:41:11;;;;;;;5.38;3.00;;;16.80;53.60;;;;;;5014633;28;20050;-44
2023/06/05 04:43:40;;;;;;;4.70;3.20;;;16.80;54.10;;;;;;5014768;28;20053;-46
2023/06/05 04:46:07;;;;;;;4.68;3.42;;;16.90;53.70;;;;;;5029019;28;20152;-49
2023/06/05 04:48:34;;;;;;;5.93;3.78;;;16.90;53.60;;;;;;5018520;28;20045;-46
2023/06/05 04:51:01;;;;;;;3.53;3.08;;;16.90;53.70;;;;;;5031832;28;20054;-45
2023/06/05 04:53:38;;;;;;;3.78;3.28;;;16.90;53.70;;;;;;5012211;28;20501;-49
2023/06/05 04:56:07;;;;;;;5.05;3.28;;;16.90;53.90;;;;;;5029999;28;20116;-44
2023/06/05 04:58:34;;;;;;;7.13;4.13;;;16.90;53.50;;;;;;5030620;28;20044;-48
2023/06/05 05:01:06;;;;;;;3.92;3.47;;;16.90;53.40;;;;;;5031079;28;20034;-45
2023/06/05 05:03:38;;;;;;;4.65;3.00;;;16.90;53.30;;;;;;5015874;28;20049;-45
2023/06/05 05:06:05;;;;;;;3.78;3.35;;;17.00;53.50;;;;;;5027991;28;20034;-45
2023/06/05 05:08:32;;;;;;;5.15;3.42;;;17.00;53.40;;;;;;5013296;28;20045;-44
2023/06/05 05:11:00;;;;;;;5.90;3.88;;;17.00;53.50;;;;;;5009984;28;20076;-45
2023/06/05 05:13:29;;;;;;;6.80;3.40;;;17.00;53.40;;;;;;5013142;28;20053;-46
2023/06/05 05:15:59;;;;;;;5.13;3.67;;;17.00;53.50;;;;;;5013758;28;20037;-47
2023/06/05 05:18:29;;;;;;;4.47;3.42;;;17.00;53.30;;;;;;5012001;28;20038;-45
2023/06/05 05:21:02;;;;;;;6.03;3.85;;;17.10;53.60;;;;;;5027131;28;20045;-44
2023/06/05 05:23:33;;;;;;;4.90;3.47;;;17.10;53.50;;;;;;5011030;28;20060;-49
2023/06/05 05:26:04;;;;;;;4.15;3.30;;;17.10;53.40;;;;;;5024530;28;20480;-49
2023/06/05 05:28:31;;;;;;;4.78;3.78;;;17.10;53.50;;;;;;5012882;28;20038;-44
2023/06/05 05:31:04;;;;;;;5.85;4.22;;;17.20;53.40;;;;;;5027080;28;20045;-47
2023/06/05 05:33:35;;;;;;;4.32;3.75;;;17.20;53.30;;;;;;5012381;28;20064;-46
2023/06/05 05:36:03;;;;;;;6.90;4.00;;;17.20;53.20;;;;;;5013414;28;20045;-45
2023/06/05 05:38:32;;;;;;;6.15;3.88;;;17.20;53.40;;;;;;5009998;28;20124;-48
2023/06/05 05:41:02;;;;;;;10.10;4.60;;;17.20;53.50;;;;;;5022778;28;20041;-48
2023/06/05 05:43:33;;;;;;;4.30;3.78;;;17.20;53.50;;;;;;5013216;28;20060;-47
2023/06/05 05:46:03;;;;;;;4.38;3.70;;;17.20;53.60;;;;;;5029768;28;20537;-45
2023/06/05 05:48:33;;;;;;;4.07;3.70;;;17.30;53.60;;;;;;5027548;28;20096;-47
2023/06/05 05:50:59;;;;;;;5.20;3.33;;;17.30;53.40;;;;;;5031018;28;20049;-45
2023/06/05 05:53:26;;;;;;;4.55;3.80;;;17.30;53.30;;;;;;5029144;28;20075;-48
2023/06/05 05:55:55;;;;;;;5.05;3.22;;;17.40;53.50;;;;;;5027587;28;20053;-48
2023/06/05 05:58:24;;;;;;;4.55;3.97;;;17.30;53.20;;;;;;5030264;28;20037;-46
2023/06/05 06:00:55;;;;;;;5.10;4.47;;;17.40;53.50;;;;;;5030727;28;20056;-44
2023/06/05 06:03:27;;;;;;;5.80;3.92;;;17.40;53.50;;;;;;5028955;28;20087;-45
2023/06/05 06:05:57;;;;;;;7.28;4.88;;;17.50;53.40;;;;;;5027195;28;20065;-47
2023/06/05 06:08:24;;;;;;;5.13;4.45;;;17.50;53.50;;;;;;5030002;28;20553;-47
2023/06/05 06:10:54;;;;;;;4.93;4.43;;;17.50;53.40;;;;;;5030433;28;20502;-46
2023/06/05 06:13:28;;;;;;;9.30;4.70;;;17.60;53.40;;;;;;5027699;28;20052;-45
2023/06/05 06:15:55;;;;;;;10.30;5.05;;;17.60;53.40;;;;;;5026560;28;20091;-45
2023/06/05 06:18:25;;;;;;;5.60;4.15;;;17.60;53.40;;;;;;5029683;28;20110;-45
2023/06/05 06:20:55;;;;;;;5.82;4.38;;;17.60;53.30;;;;;;5030462;28;20037;-48
2023/06/05 06:23:21;;;;;;;7.13;4.97;;;17.60;53.40;;;;;;5023174;28;20088;-43
2023/06/05 06:25:51;;;;;;;7.57;4.40;;;17.70;53.40;;;;;;5024162;28;20072;-46
2023/06/05 06:28:19;;;;;;;5.88;5.28;;;17.70;53.40;;;;;;5029657;28;20077;-47
2023/06/05 06:30:46;;;;;;;9.77;5.03;;;17.70;53.40;;;;;;5030226;28;20037;-47
2023/06/05 06:33:13;;;;;;;6.60;4.70;;;17.70;53.40;;;;;;5026790;28;20072;-47
2023/06/05 06:35:40;;;;;;;7.85;5.00;;;17.80;53.50;;;;;;5021838;28;20084;-46
2023/06/05 06:38:07;;;;;;;5.97;5.03;;;17.80;53.50;;;;;;5048873;22;20049;-52
2023/06/05 06:40:33;;;;;;;6.47;5.03;;;17.80;53.40;;;;;;5012169;28;20489;-52
2023/06/05 06:43:00;;;;;;;9.50;5.53;;;17.80;53.40;;;;;;5024189;28;20049;-52
2023/06/05 06:45:44;;;;;;;7.45;4.57;;;17.90;53.50;;;;;;5012160;28;20059;-50
2023/06/05 06:48:11;;;;;;;6.82;5.05;;;17.90;53.30;;;;;;5029888;28;20060;-47
2023/06/05 06:50:38;;;;;;;6.93;4.70;;;17.90;53.40;;;;;;5026929;28;20107;-47
2023/06/05 06:53:09;;;;;;;6.82;4.43;;;18.00;53.50;;;;;;5029443;28;20049;-51
2023/06/05 06:55:38;;;;;;;11.90;5.03;;;18.00;53.50;;;;;;5023921;28;20041;-49
2023/06/05 06:58:07;;;;;;;5.82;4.90;;;18.10;53.40;;;;;;5014854;28;20505;-52
2023/06/05 07:00:34;;;;;;;7.80;5.28;;;18.10;53.30;;;;;;5033664;28;20045;-52
2023/06/05 07:03:02;;;;;;;6.90;5.07;;;18.20;53.30;;;;;;5032182;28;20061;-52
2023/06/05 07:05:31;;;;;;;6.53;4.97;;;18.20;52.90;;;;;;5031978;28;20042;-52
2023/06/05 07:08:00;;;;;;;7.95;5.15;;;18.20;52.80;;;;;;5033858;28;20484;-52
2023/06/05 07:10:31;;;;;;;10.90;5.00;;;18.30;52.70;;;;;;5033570;28;20051;-51
2023/06/05 07:12:57;;;;;;;6.60;4.45;;;18.30;52.60;;;;;;5026322;28;20137;-52
2023/06/05 07:15:36;;;;;;;7.78;4.50;;;18.40;52.90;;;;;;5033061;28;20127;-53
2023/06/05 07:18:05;;;;;;;7.20;5.25;;;18.40;52.80;;;;;;5033455;28;20033;-52
2023/06/05 07:20:32;;;;;;;5.68;4.82;;;18.50;53.00;;;;;;5030653;28;20116;-53
2023/06/05 07:22:59;;;;;;;7.43;5.13;;;18.50;52.60;;;;;;5030471;28;20053;-52
2023/06/05 07:25:28;;;;;;;5.55;4.60;;;18.60;52.50;;;;;;5029194;28;20111;-51
2023/06/05 07:27:59;;;;;;;5.38;4.82;;;18.60;52.70;;;;;;5028126;28;20431;-53
2023/06/05 07:30:30;;;;;;;7.82;5.30;;;18.70;52.50;;;;;;5033114;28;20056;-51
2023/06/05 07:32:58;;;;;;;9.27;5.43;;;18.70;52.50;;;;;;5027395;28;20095;-52
2023/06/05 07:35:25;;;;;;;6.43;4.75;;;18.80;52.30;;;;;;5032821;28;20087;-51
2023/06/05 07:37:54;;;;;;;9.23;5.05;;;18.80;52.30;;;;;;5033138;28;20140;-52
2023/06/05 07:40:25;;;;;;;6.18;4.72;;;18.80;52.30;;;;;;5008330;28;20088;-49
2023/06/05 07:42:52;;;;;;;6.70;4.80;;;18.90;52.20;;;;;;5033101;28;20052;-51
2023/06/05 07:45:20;;;;;;;7.72;4.75;;;18.90;52.00;;;;;;5032209;28;20045;-52
2023/06/05 07:47:48;;;;;;;8.38;5.22;;;18.90;52.20;;;;;;5031986;28;20060;-51
2023/06/05 07:50:15;;;;;;;6.95;4.72;;;18.90;52.00;;;;;;5029457;28;20049;-52
2023/06/05 07:52:45;;;;;;;6.63;5.63;;;19.00;51.90;;;;;;5015766;28;20088;-52
2023/06/05 07:55:24;;;;;;;6.00;4.68;;;19.00;52.00;;;;;;5026876;28;20554;-52
2023/06/05 07:57:52;;;;;;;5.68;4.75;;;19.10;52.10;;;;;;5032012;28;20410;-49
2023/06/05 08:00:21;;;;;;;8.02;5.07;;;19.10;52.00;;;;;;5032460;28;20095;-51
2023/06/05 08:02:48;;;;;;;7.13;5.65;;;19.20;52.70;;;;;;5013191;28;20041;-52
2023/06/05 08:05:17;;;;;;;7.20;4.80;;;19.20;52.10;;;;;;5029191;28;20096;-50
2023/06/05 08:07:46;;;;;;;8.27;5.18;;;19.30;51.90;;;;;;5032837;28;20037;-52
2023/06/05 08:10:13;;;;;;;5.50;4.60;;;19.30;52.10;;;;;;5031241;28;20069;-52
2023/06/05 08:12:42;;;;;;;7.50;4.93;;;19.40;51.70;;;;;;5029878;28;20116;-50
2023/06/05 08:15:09;;;;;;;5.82;4.78;;;19.40;51.80;;;;;;5027475;28;20502;-51
2023/06/05 08:17:36;;;;;;;8.45;5.20;;;19.50;51.60;;;;;;5032892;28;20120;-52
2023/06/05 08:20:07;;;;;;;8.77;5.38;;;19.50;51.50;;;;;;5032357;28;20092;-52
2023/06/05 08:22:36;;;;;;;8.15;5.05;;;19.60;51.80;;;;;;5011846;28;20037;-53
2023/06/05 08:25:06;;;;;;;6.70;5.38;;;19.60;51.70;;;;;;5021341;28;20398;-52
2023/06/05 08:27:35;;;;;;;8.05;5.20;;;19.70;51.80;;;;;;5032771;28;20054;-52
2023/06/05 08:30:05;;;;;;;6.35;4.90;;;19.80;51.60;;;;;;5031971;28;20048;-49
2023/06/05 08:32:32;;;;;;;7.82;5.10;;;19.80;51.90;;;;;;5028094;28;20566;-52
2023/06/05 08:34:59;;;;;;;6.25;5.43;;;19.80;52.00;;;;;;5031773;28;20100;-51
2023/06/05 08:37:28;;;;;;;7.65;4.85;;;19.90;51.40;;;;;;5032570;28;20041;-51
2023/06/05 08:39:58;;;;;;;9.15;4.60;;;20.00;51.50;;;;;;5031011;28;20046;-51
2023/06/05 08:42:28;;;;;;;9.68;5.50;;;20.00;51.20;;;;;;5028009;28;20041;-53
2023/06/05 08:44:55;;;;;;;7.50;5.07;;;20.10;51.20;;;;;;5031365;28;20052;-52
2023/06/05 08:47:32;;;;;;;7.50;5.22;;;20.10;50.50;;;;;;5030858;28;20084;-51
2023/06/05 08:50:04;;;;;;;11.18;4.55;;;20.20;51.10;;;;;;5027608;28;20560;-52
2023/06/05 08:52:34;;;;;;;11.23;5.20;;;20.20;50.70;;;;;;5032447;28;20053;-55
2023/06/05 08:55:04;;;;;;;7.00;4.63;;;20.30;50.90;;;;;;5024901;28;20104;-50
2023/06/05 08:57:33;;;;;;;6.53;4.80;;;20.30;50.50;;;;;;5032180;28;20045;-53
2023/06/05 09:00:07;;;;;;;6.88;4.28;;;20.40;50.80;;;;;;5031489;28;20387;-49
2023/06/05 09:02:39;;;;;;;6.93;5.35;;;20.50;51.20;;;;;;5013318;28;20091;-49
2023/06/05 09:05:14;;;;;;;5.97;4.88;;;20.60;51.60;;;;;;5029546;28;20129;-51
2023/06/05 09:07:43;;;;;;;4.95;4.45;;;20.60;50.80;;;;;;5031992;28;20696;-51
2023/06/05 09:10:27;;;;;;;6.88;4.30;;;20.70;50.30;;;;;;5031397;28;20044;-52
2023/06/05 09:12:59;;;;;;;6.65;5.18;;;20.80;49.90;;;;;;5002661;28;20045;-52
2023/06/05 09:15:30;;;;;;;7.25;5.13;;;20.80;49.90;;;;;;5031096;28;20041;-48
2023/06/05 09:18:11;;;;;;;6.97;4.32;;;20.90;49.60;;;;;;5031956;28;20044;-52
2023/06/05 09:20:42;;;;;;;4.97;4.47;;;21.00;50.10;;;;;;5029366;28;20561;-49
2023/06/05 09:23:27;;;;;;;6.20;5.35;;;21.00;50.20;;;;;;5010040;28;20044;-52
2023/06/05 09:26:09;;;;;;;10.43;4.82;;;21.10;50.40;;;;;;5022597;28;20038;-52
2023/06/05 09:28:52;;;;;;;;;;;21.10;50.30;;;;;;5031783;28;20056;-50
2023/06/05 09:31:26;;;;;;;7.28;4.38;;;21.20;49.60;;;;;;5031473;28;19921;-52
2023/06/05 09:33:57;;;;;;;4.75;4.20;;;21.30;49.50;;;;;;5028395;28;20044;-53
2023/06/05 09:36:26;;;;;;;5.63;4.68;;;21.40;48.90;;;;;;5028793;28;20583;-51
2023/06/05 09:39:02;;;;;;;5.50;4.55;;;21.40;49.00;;;;;;5023793;28;20159;-53
2023/06/05 09:41:41;;;;;;;7.18;4.47;;;21.50;48.70;;;;;;5031252;28;20080;-51
2023/06/05 09:44:08;;;;;;;5.43;4.22;;;21.50;49.00;;;;;;5025076;28;20128;-52
2023/06/05 09:46:36;;;;;;;6.55;3.90;;;21.60;48.80;;;;;;5031025;28;20120;-52
2023/06/05 09:49:15;;;;;;;5.30;4.28;;;21.70;48.10;;;;;;5030972;28;20045;-52
2023/06/05 09:51:48;;;;;;;7.30;4.47;;;21.70;47.70;;;;;;5030745;28;20120;-50
2023/06/05 09:54:15;;;;;;;6.03;4.15;;;21.80;48.40;;;;;;5008355;28;20052;-49
2023/06/05 09:56:49;;;;;;;6.07;4.57;;;21.80;48.60;;;;;;5030081;28;20096;-52
2023/06/05 09:59:25;;;;;;;7.35;4.18;;;21.90;48.50;;;;;;5029934;28;20413;-52
2023/06/05 10:01:53;;;;;;;7.90;4.35;;;21.90;48.20;;;;;;5030343;28;20098;-52
2023/06/05 10:04:23;;;;;;;6.07;4.72;;;22.00;47.90;;;;;;5028016;28;20072;-51
2023/06/05 10:06:52;;;;;;;7.65;4.60;;;22.10;48.10;;;;;;5013637;28;20033;-52
2023/06/05 10:09:25;;;;;;;4.63;4.13;;;22.10;46.90;;;;;;5030069;28;20107;-49
2023/06/05 10:11:53;;;;;;;6.25;3.92;;;22.20;47.40;;;;;;5020108;28;20512;-53
2023/06/05 10:14:22;;;;;;;4.45;3.67;;;22.20;47.20;;;;;;5029731;28;20560;-48
2023/06/05 10:16:51;;;;;;;5.22;3.83;;;22.30;47.40;;;;;;5013262;28;20133;-52
2023/06/05 10:19:21;;;;;;;6.43;3.80;;;22.30;47.60;;;;;;5028413;28;20573;-49
2023/06/05 10:21:49;;;;;;;3.88;3.38;;;22.40;47.50;;;;;;5025946;28;20120;-49
2023/06/05 10:24:26;;;;;;;4.70;3.40;;;22.50;46.60;;;;;;5004626;28;20046;-53
2023/06/05 10:27:15;;;;;;;5.53;3.97;;;22.50;46.50;;;;;;5028672;28;20493;-50
2023/06/05 10:30:11;;;;;;;5.22;3.10;;;22.60;46.40;;;;;;5029428;28;20049;-49
2023/06/05 10:33:19;;;;;;;5.25;3.35;;;22.70;46.50;;;;;;5011899;28;20128;-52
2023/06/05 10:35:52;;;;;;;10.57;3.13;;;22.80;45.90;;;;;;5025691;28;20072;-53
2023/06/05 10:38:21;;;;;;;4.75;2.92;;;22.90;45.50;;;;;;5029590;28;20124;-51
2023/06/05 10:40:55;;;;;;;3.70;2.88;;;22.90;45.70;;;;;;5029819;28;20045;-53
2023/06/05 10:43:33;;;;;;;6.07;3.30;;;23.00;45.90;;;;;;5025291;28;20032;-50
2023/06/05 10:46:21;;;;;;;3.95;2.90;;;23.00;45.40;;;;;;5022766;28;20116;-51
2023/06/05 10:49:12;;;;;;;4.60;3.63;;;23.10;45.30;;;;;;4988320;28;20085;-52
2023/06/05 10:51:46;;;;;;;6.47;3.97;;;23.30;45.30;;;;;;5027779;28;20117;-49
2023/06/05 10:54:34;;;;;;;6.35;3.63;;;23.30;44.70;;;;;;5019128;28;20073;-49
2023/06/05 10:57:03;;;;;;;3.72;2.70;;;23.40;44.80;;;;;;5023194;28;20045;-50
2023/06/05 10:59:32;;;;;;;3.72;3.15;;;23.40;44.40;;;;;;5028754;28;20056;-48
2023/06/05 11:04:46;;;;;;;3.10;2.50;;;23.50;45.30;;;;;;5026115;28;20068;-50
2023/06/05 11:07:20;;;;;;;6.18;3.75;;;23.60;44.70;;;;;;5030512;28;20061;-49
2023/06/05 11:10:01;;;;;;;6.63;3.10;;;23.70;44.80;;;;;;5029181;28;20092;-52
2023/06/05 11:12:43;;;;;;;3.63;2.88;;;23.80;43.70;;;;;;5027606;28;20573;-52
2023/06/05 11:15:14;;;;;;;6.17;3.13;;;23.80;43.90;;;;;;5025747;28;20410;-51
2023/06/05 11:17:46;;;;;;;3.75;2.55;;;23.90;43.70;;;;;;5029725;28;20276;-53
2023/06/05 11:20:21;;;;;;;3.78;2.53;;;24.00;44.40;;;;;;5028963;28;20045;-52
2023/06/05 11:22:54;;;;;;;3.63;2.70;;;24.10;43.80;;;;;;5026341;28;20053;-53
2023/06/05 11:25:21;;;;;;;6.85;3.03;;;24.10;43.40;;;;;;5022743;28;20037;-49
2023/06/05 11:27:53;;;;;;;6.10;2.90;;;24.20;42.90;;;;;;5029642;28;20116;-53
2023/06/05 11:30:24;;;;;;;2.80;2.58;;;24.30;42.50;;;;;;5029327;28;20121;-52
2023/06/05 11:33:14;;;;;;;3.20;2.90;;;24.40;42.50;;;;;;5020140;28;20034;-52
2023/06/05 11:35:48;;;;;;;3.15;2.85;;;24.50;42.20;;;;;;5027242;28;20060;-51
2023/06/05 11:38:22;;;;;;;2.85;2.13;;;24.50;42.10;;;;;;5028287;28;20453;-53
2023/06/05 11:40:55;;;;;;;;;;;24.60;42.00;;;;;;5029821;28;20046;-50
2023/06/05 11:43:25;;;;;;;2.00;1.70;;;24.70;42.10;;;;;;5021198;28;20415;-52
2023/06/05 11:45:58;;;;;;;6.30;2.90;;;24.80;40.30;;;;;;5032454;28;20133;-53
2023/06/05 11:48:25;;;;;;;3.90;2.38;;;24.80;40.50;;;;;;5032898;28;20067;-52
2023/06/05 11:50:58;;;;;;;;;;;24.90;40.60;;;;;;5031425;28;20564;-52
2023/06/05 11:53:29;;;;;;;4.25;1.88;;;25.10;41.30;;;;;;5028375;28;19967;-53
2023/06/05 11:56:08;;;;;;;1.60;1.50;;;25.10;39.50;;;;;;5028118;28;20127;-50
2023/06/05 11:58:38;;;;;;;3.60;1.70;;;25.20;39.20;;;;;;5032439;28;20050;-50
2023/06/05 12:01:25;;;;;;;2.13;1.80;;;25.30;39.10;;;;;;5033104;28;20051;-53
2023/06/05 12:04:05;;;;;;;4.22;2.15;;;25.40;38.80;;;;;;5027074;28;20049;-53
2023/06/05 12:06:48;;;;;;;4.43;2.35;;;25.50;38.60;;;;;;5033074;28;20401;-48
2023/06/05 12:09:19;;;;;;;3.00;2.20;;;25.60;37.90;;;;;;5032810;28;20048;-52
2023/06/05 12:11:48;;;;;;;4.15;2.63;;;25.70;37.90;;;;;;5026760;28;20061;-53
2023/06/05 12:14:31;;;;;;;3.40;1.88;;;25.70;37.60;;;;;;5032419;28;20037;-50
2023/06/05 12:16:59;;;;;;;4.25;1.90;;;25.80;37.90;;;;;;5025170;28;20041;-53
2023/06/05 12:19:27;;;;;;;3.72;1.90;;;25.80;36.60;;;;;;5029267;28;20553;-52
2023/06/05 12:22:04;;;;;;;3.15;1.83;;;25.80;36.70;;;;;;5013350;28;20071;-52
2023/06/05 12:24:33;;;;;;;2.58;2.00;;;25.90;36.60;;;;;;5023937;28;20069;-51
2023/06/05 12:27:04;;;;;;;2.88;2.00;;;25.90;37.10;;;;;;5032774;28;20026;-53
2023/06/05 12:29:40;;;;;;;1.73;1.63;;;26.00;36.10;;;;;;5032307;28;20047;-51
2023/06/05 12:32:24;;;;;;;2.58;1.92;;;26.00;36.30;;;;;;5023885;28;20076;-52
2023/06/05 12:34:52;;;;;;;2.55;2.03;;;26.20;36.60;;;;;;5030082;28;20057;-52
2023/06/05 12:37:37;;;;;;;8.23;2.00;;;26.20;35.80;;;;;;5015699;28;20033;-53
2023/06/05 12:40:08;;;;;;;3.47;2.22;;;26.30;36.00;;;;;;5032035;28;20125;-53
2023/06/05 12:42:36;;;;;;;5.03;2.45;;;26.40;35.50;;;;;;5029020;28;20491;-53
2023/06/05 12:45:04;;;;;;;3.75;1.85;;;26.50;35.80;;;;;;5031514;28;20095;-53
2023/06/05 12:47:31;;;;;;;2.42;1.90;;;26.50;36.00;;;;;;5032237;28;20486;-52
2023/06/05 12:49:58;;;;;;;2.35;1.90;;;26.60;35.50;;;;;;5032617;28;20037;-53
2023/06/05 12:52:33;;;;;;;2.53;2.30;;;26.70;35.50;;;;;;5030683;23;20136;-44
2023/06/05 12:55:00;;;;;;;4.32;2.53;;;26.80;34.70;;;;;;5009004;28;20129;-46
2023/06/05 12:57:30;;;;;;;3.00;2.35;;;26.90;34.90;;;;;;5011978;28;20045;-46
2023/06/05 12:59:58;;;;;;;3.78;2.22;;;27.00;34.80;;;;;;5010661;28;20041;-46
2023/06/05 13:02:25;;;;;;;3.30;2.35;;;27.10;34.80;;;;;;5012173;28;20498;-46
2023/06/05 13:04:55;;;;;;;4.38;2.38;;;27.20;34.60;;;;;;5011491;28;20074;-45
2023/06/05 13:07:22;;;;;;;4.28;2.25;;;27.30;34.30;;;;;;5011612;28;20042;-46
2023/06/05 13:09:52;;;;;;;4.38;2.13;;;27.30;34.40;;;;;;5010876;28;20058;-48
2023/06/05 13:12:24;;;;;;;2.80;2.08;;;27.50;33.90;;;;;;5012470;28;20049;-44